sensor_id;sensor_type;location;lat;lon;timestamp;P1;durP1;ratioP1;P2;durP2;ratioP2
3447;SDS011;1738;49.500;17.736;2023-04-24T00:02:21;7.00;;;5.10;;
3447;SDS011;1738;49.500;17.736;2023-04-24T00:04:47;5.73;;;4.97;;
3447;SDS011;1738;49.500;17.736;2023-04-24T00:07:13;8.03;;;5.23;;
3447;SDS011;1738;49.500;17.736;2023-04-24T00:09:39;6.55;;;5.03;;
3447;SDS011;1738;49.500;17.736;2023-04-24T00:12:05;7.00;;;4.83;;
3447;SDS011;1738;49.500;17.736;2023-04-24T00:14:31;5.20;;;4.43;;
3447;SDS011;1738;49.500;17.736;2023-04-24T00:16:56;7.40;;;5.00;;
3447;SDS011;1738;49.500;17.736;2023-04-24T00:19:22;5.50;;;4.70;;
3447;SDS011;1738;49.500;17.736;2023-04-24T00:21:48;8.43;;;5.27;;
3447;SDS011;1738;49.500;17.736;2023-04-24T00:24:15;7.30;;;5.77;;
3447;SDS011;1738;49.500;17.736;2023-04-24T00:26:40;6.20;;;4.50;;
3447;SDS011;1738;49.500;17.736;2023-04-24T00:29:06;8.00;;;4.97;;
3447;SDS011;1738;49.500;17.736;2023-04-24T00:31:32;8.37;;;6.43;;
3447;SDS011;1738;49.500;17.736;2023-04-24T00:33:58;5.77;;;5.10;;
3447;SDS011;1738;49.500;17.736;2023-04-24T00:36:24;8.13;;;4.40;;
3447;SDS011;1738;49.500;17.736;2023-04-24T00:38:50;6.53;;;5.50;;
3447;SDS011;1738;49.500;17.736;2023-04-24T00:41:15;7.80;;;4.30;;
3447;SDS011;1738;49.500;17.736;2023-04-24T00:43:41;7.80;;;5.00;;
3447;SDS011;1738;49.500;17.736;2023-04-24T00:46:07;7.07;;;4.40;;
3447;SDS011;1738;49.500;17.736;2023-04-24T00:48:33;9.17;;;5.20;;
3447;SDS011;1738;49.500;17.736;2023-04-24T00:50:59;6.57;;;4.70;;
3447;SDS011;1738;49.500;17.736;2023-04-24T00:53:25;7.23;;;5.70;;
3447;SDS011;1738;49.500;17.736;2023-04-24T00:55:50;8.60;;;6.40;;
3447;SDS011;1738;49.500;17.736;2023-04-24T00:58:16;6.00;;;4.20;;
3447;SDS011;1738;49.500;17.736;2023-04-24T01:00:42;5.60;;;4.67;;
3447;SDS011;1738;49.500;17.736;2023-04-24T01:03:08;6.87;;;5.20;;
3447;SDS011;1738;49.500;17.736;2023-04-24T01:05:34;7.72;;;5.43;;
3447;SDS011;1738;49.500;17.736;2023-04-24T01:08:00;5.83;;;4.83;;
3447;SDS011;1738;49.500;17.736;2023-04-24T01:10:25;6.90;;;4.90;;
3447;SDS011;1738;49.500;17.736;2023-04-24T01:12:51;9.10;;;5.10;;
3447;SDS011;1738;49.500;17.736;2023-04-24T01:15:17;8.90;;;5.63;;
3447;SDS011;1738;49.500;17.736;2023-04-24T01:17:43;5.83;;;4.60;;
3447;SDS011;1738;49.500;17.736;2023-04-24T01:20:09;7.97;;;4.65;;
3447;SDS011;1738;49.500;17.736;2023-04-24T01:22:35;8.93;;;5.57;;
3447;SDS011;1738;49.500;17.736;2023-04-24T01:25:01;6.63;;;5.33;;
3447;SDS011;1738;49.500;17.736;2023-04-24T01:27:27;5.87;;;5.07;;
3447;SDS011;1738;49.500;17.736;2023-04-24T01:29:52;6.70;;;4.77;;
3447;SDS011;1738;49.500;17.736;2023-04-24T01:32:18;7.13;;;4.27;;
3447;SDS011;1738;49.500;17.736;2023-04-24T01:34:44;8.80;;;4.93;;
3447;SDS011;1738;49.500;17.736;2023-04-24T01:37:10;9.43;;;5.20;;
3447;SDS011;1738;49.500;17.736;2023-04-24T01:39:36;6.80;;;5.10;;
3447;SDS011;1738;49.500;17.736;2023-04-24T01:42:02;7.47;;;4.72;;
3447;SDS011;1738;49.500;17.736;2023-04-24T01:44:28;7.80;;;5.03;;
3447;SDS011;1738;49.500;17.736;2023-04-24T01:46:54;6.80;;;4.87;;
3447;SDS011;1738;49.500;17.736;2023-04-24T01:49:19;4.90;;;4.23;;
3447;SDS011;1738;49.500;17.736;2023-04-24T01:51:45;6.10;;;4.80;;
3447;SDS011;1738;49.500;17.736;2023-04-24T01:54:11;7.90;;;4.87;;
3447;SDS011;1738;49.500;17.736;2023-04-24T01:56:37;5.40;;;4.10;;
3447;SDS011;1738;49.500;17.736;2023-04-24T01:59:03;11.87;;;6.93;;
3447;SDS011;1738;49.500;17.736;2023-04-24T02:01:33;7.30;;;5.50;;
3447;SDS011;1738;49.500;17.736;2023-04-24T02:03:54;8.23;;;5.50;;
3447;SDS011;1738;49.500;17.736;2023-04-24T02:06:20;7.80;;;5.60;;
3447;SDS011;1738;49.500;17.736;2023-04-24T02:08:46;7.80;;;4.80;;
3447;SDS011;1738;49.500;17.736;2023-04-24T02:11:12;6.77;;;4.90;;
3447;SDS011;1738;49.500;17.736;2023-04-24T02:13:38;7.07;;;4.87;;
3447;SDS011;1738;49.500;17.736;2023-04-24T02:16:04;10.50;;;4.77;;
3447;SDS011;1738;49.500;17.736;2023-04-24T02:18:29;6.80;;;5.07;;
3447;SDS011;1738;49.500;17.736;2023-04-24T02:20:55;10.40;;;5.22;;
3447;SDS011;1738;49.500;17.736;2023-04-24T02:23:21;5.67;;;4.47;;
3447;SDS011;1738;49.500;17.736;2023-04-24T02:25:47;8.00;;;5.10;;
3447;SDS011;1738;49.500;17.736;2023-04-24T02:28:13;8.45;;;5.72;;
3447;SDS011;1738;49.500;17.736;2023-04-24T02:30:39;7.40;;;4.67;;
3447;SDS011;1738;49.500;17.736;2023-04-24T02:33:04;8.47;;;5.73;;
3447;SDS011;1738;49.500;17.736;2023-04-24T02:35:30;6.40;;;4.50;;
3447;SDS011;1738;49.500;17.736;2023-04-24T02:37:56;7.37;;;4.77;;
3447;SDS011;1738;49.500;17.736;2023-04-24T02:40:23;6.90;;;4.80;;
3447;SDS011;1738;49.500;17.736;2023-04-24T02:42:49;6.73;;;5.20;;
3447;SDS011;1738;49.500;17.736;2023-04-24T02:45:14;9.23;;;4.77;;
3447;SDS011;1738;49.500;17.736;2023-04-24T02:47:40;7.00;;;4.80;;
3447;SDS011;1738;49.500;17.736;2023-04-24T02:50:07;8.30;;;5.27;;
3447;SDS011;1738;49.500;17.736;2023-04-24T02:52:33;8.33;;;5.03;;
3447;SDS011;1738;49.500;17.736;2023-04-24T02:54:58;6.83;;;5.47;;
3447;SDS011;1738;49.500;17.736;2023-04-24T02:57:24;7.62;;;5.53;;
3447;SDS011;1738;49.500;17.736;2023-04-24T02:59:50;10.83;;;5.30;;
3447;SDS011;1738;49.500;17.736;2023-04-24T03:02:16;12.00;;;5.57;;
3447;SDS011;1738;49.500;17.736;2023-04-24T03:04:42;7.00;;;5.30;;
3447;SDS011;1738;49.500;17.736;2023-04-24T03:07:08;9.03;;;5.67;;
3447;SDS011;1738;49.500;17.736;2023-04-24T03:09:33;6.73;;;4.90;;
3447;SDS011;1738;49.500;17.736;2023-04-24T03:11:59;9.43;;;5.60;;
3447;SDS011;1738;49.500;17.736;2023-04-24T03:14:25;7.53;;;6.20;;
3447;SDS011;1738;49.500;17.736;2023-04-24T03:16:52;7.60;;;5.27;;
3447;SDS011;1738;49.500;17.736;2023-04-24T03:19:18;9.03;;;5.90;;
3447;SDS011;1738;49.500;17.736;2023-04-24T03:21:44;8.33;;;5.37;;
3447;SDS011;1738;49.500;17.736;2023-04-24T03:24:09;8.83;;;4.70;;
3447;SDS011;1738;49.500;17.736;2023-04-24T03:26:35;7.80;;;5.90;;
3447;SDS011;1738;49.500;17.736;2023-04-24T03:29:01;7.00;;;5.10;;
3447;SDS011;1738;49.500;17.736;2023-04-24T03:31:27;12.47;;;5.70;;
3447;SDS011;1738;49.500;17.736;2023-04-24T03:33:53;8.80;;;5.90;;
3447;SDS011;1738;49.500;17.736;2023-04-24T03:36:19;7.40;;;4.93;;
3447;SDS011;1738;49.500;17.736;2023-04-24T03:38:45;7.33;;;5.50;;
3447;SDS011;1738;49.500;17.736;2023-04-24T03:41:11;8.60;;;5.80;;
3447;SDS011;1738;49.500;17.736;2023-04-24T03:43:36;10.30;;;5.80;;
3447;SDS011;1738;49.500;17.736;2023-04-24T03:46:02;7.93;;;5.83;;
3447;SDS011;1738;49.500;17.736;2023-04-24T03:48:28;7.00;;;5.90;;
3447;SDS011;1738;49.500;17.736;2023-04-24T03:50:54;8.30;;;6.30;;
3447;SDS011;1738;49.500;17.736;2023-04-24T03:53:20;6.77;;;5.10;;
3447;SDS011;1738;49.500;17.736;2023-04-24T03:55:45;15.33;;;6.50;;
3447;SDS011;1738;49.500;17.736;2023-04-24T03:58:11;7.30;;;5.57;;
3447;SDS011;1738;49.500;17.736;2023-04-24T04:00:37;10.87;;;6.57;;
3447;SDS011;1738;49.500;17.736;2023-04-24T04:03:03;11.98;;;7.25;;
3447;SDS011;1738;49.500;17.736;2023-04-24T04:05:29;9.50;;;6.60;;
3447;SDS011;1738;49.500;17.736;2023-04-24T04:07:55;8.00;;;6.37;;
3447;SDS011;1738;49.500;17.736;2023-04-24T04:10:21;14.67;;;7.10;;
3447;SDS011;1738;49.500;17.736;2023-04-24T04:12:46;7.57;;;5.20;;
3447;SDS011;1738;49.500;17.736;2023-04-24T04:15:12;7.40;;;6.10;;
3447;SDS011;1738;49.500;17.736;2023-04-24T04:17:38;7.73;;;5.47;;
3447;SDS011;1738;49.500;17.736;2023-04-24T04:20:04;6.57;;;5.10;;
3447;SDS011;1738;49.500;17.736;2023-04-24T04:22:30;8.40;;;4.70;;
3447;SDS011;1738;49.500;17.736;2023-04-24T04:24:56;8.45;;;6.20;;
3447;SDS011;1738;49.500;17.736;2023-04-24T04:27:22;9.23;;;5.80;;
3447;SDS011;1738;49.500;17.736;2023-04-24T04:29:48;12.37;;;6.90;;
3447;SDS011;1738;49.500;17.736;2023-04-24T04:32:14;13.33;;;6.53;;
3447;SDS011;1738;49.500;17.736;2023-04-24T04:34:40;9.13;;;8.07;;
3447;SDS011;1738;49.500;17.736;2023-04-24T04:37:05;8.87;;;6.67;;
3447;SDS011;1738;49.500;17.736;2023-04-24T04:39:31;9.23;;;7.10;;
3447;SDS011;1738;49.500;17.736;2023-04-24T04:41:57;12.50;;;9.13;;
3447;SDS011;1738;49.500;17.736;2023-04-24T04:44:23;7.67;;;6.33;;
3447;SDS011;1738;49.500;17.736;2023-04-24T04:46:49;9.13;;;7.57;;
3447;SDS011;1738;49.500;17.736;2023-04-24T04:49:15;7.93;;;7.10;;
3447;SDS011;1738;49.500;17.736;2023-04-24T04:51:40;9.10;;;8.07;;
3447;SDS011;1738;49.500;17.736;2023-04-24T04:54:06;12.13;;;8.10;;
3447;SDS011;1738;49.500;17.736;2023-04-24T04:56:32;14.57;;;10.07;;
3447;SDS011;1738;49.500;17.736;2023-04-24T04:58:58;20.50;;;9.57;;
3447;SDS011;1738;49.500;17.736;2023-04-24T05:01:24;11.23;;;8.47;;
3447;SDS011;1738;49.500;17.736;2023-04-24T05:03:50;12.57;;;8.83;;
3447;SDS011;1738;49.500;17.736;2023-04-24T05:06:16;12.07;;;9.80;;
3447;SDS011;1738;49.500;17.736;2023-04-24T05:08:42;14.03;;;9.47;;
3447;SDS011;1738;49.500;17.736;2023-04-24T05:11:07;16.10;;;11.87;;
3447;SDS011;1738;49.500;17.736;2023-04-24T05:13:33;12.90;;;9.20;;
3447;SDS011;1738;49.500;17.736;2023-04-24T05:15:59;13.77;;;10.00;;
3447;SDS011;1738;49.500;17.736;2023-04-24T05:18:25;16.93;;;9.63;;
3447;SDS011;1738;49.500;17.736;2023-04-24T05:20:51;12.77;;;10.70;;
3447;SDS011;1738;49.500;17.736;2023-04-24T05:23:17;15.13;;;10.20;;
3447;SDS011;1738;49.500;17.736;2023-04-24T05:25:43;8.30;;;7.10;;
3447;SDS011;1738;49.500;17.736;2023-04-24T05:28:08;9.80;;;7.53;;
3447;SDS011;1738;49.500;17.736;2023-04-24T05:30:34;11.63;;;7.60;;
3447;SDS011;1738;49.500;17.736;2023-04-24T05:33:00;10.13;;;7.33;;
3447;SDS011;1738;49.500;17.736;2023-04-24T05:35:26;47.07;;;33.00;;
3447;SDS011;1738;49.500;17.736;2023-04-24T05:37:52;14.10;;;11.77;;
3447;SDS011;1738;49.500;17.736;2023-04-24T05:40:18;13.73;;;8.30;;
3447;SDS011;1738;49.500;17.736;2023-04-24T05:42:43;12.67;;;8.57;;
3447;SDS011;1738;49.500;17.736;2023-04-24T05:45:09;14.77;;;10.07;;
3447;SDS011;1738;49.500;17.736;2023-04-24T05:47:35;12.13;;;10.20;;
3447;SDS011;1738;49.500;17.736;2023-04-24T05:50:01;10.20;;;8.57;;
3447;SDS011;1738;49.500;17.736;2023-04-24T05:52:27;15.40;;;11.20;;
3447;SDS011;1738;49.500;17.736;2023-04-24T05:54:53;18.97;;;11.30;;
3447;SDS011;1738;49.500;17.736;2023-04-24T05:57:19;16.17;;;11.80;;
3447;SDS011;1738;49.500;17.736;2023-04-24T05:59:45;12.40;;;10.23;;
3447;SDS011;1738;49.500;17.736;2023-04-24T06:02:11;14.90;;;11.63;;
3447;SDS011;1738;49.500;17.736;2023-04-24T06:04:37;12.57;;;10.63;;
3447;SDS011;1738;49.500;17.736;2023-04-24T06:07:02;9.40;;;8.50;;
3447;SDS011;1738;49.500;17.736;2023-04-24T06:09:28;11.30;;;9.03;;
3447;SDS011;1738;49.500;17.736;2023-04-24T06:11:54;10.50;;;9.00;;
3447;SDS011;1738;49.500;17.736;2023-04-24T06:14:20;11.47;;;8.77;;
3447;SDS011;1738;49.500;17.736;2023-04-24T06:16:46;22.17;;;10.40;;
3447;SDS011;1738;49.500;17.736;2023-04-24T06:19:12;11.10;;;9.50;;
3447;SDS011;1738;49.500;17.736;2023-04-24T06:21:37;10.10;;;8.23;;
3447;SDS011;1738;49.500;17.736;2023-04-24T06:24:03;10.17;;;6.60;;
3447;SDS011;1738;49.500;17.736;2023-04-24T06:26:29;10.13;;;6.50;;
3447;SDS011;1738;49.500;17.736;2023-04-24T06:28:55;8.63;;;7.57;;
3447;SDS011;1738;49.500;17.736;2023-04-24T06:31:21;10.87;;;6.80;;
3447;SDS011;1738;49.500;17.736;2023-04-24T06:33:47;8.07;;;7.17;;
3447;SDS011;1738;49.500;17.736;2023-04-24T06:36:13;9.73;;;7.47;;
3447;SDS011;1738;49.500;17.736;2023-04-24T06:38:38;9.48;;;6.80;;
3447;SDS011;1738;49.500;17.736;2023-04-24T06:41:04;10.50;;;7.70;;
3447;SDS011;1738;49.500;17.736;2023-04-24T06:43:30;15.70;;;8.23;;
3447;SDS011;1738;49.500;17.736;2023-04-24T06:45:56;13.40;;;7.80;;
3447;SDS011;1738;49.500;17.736;2023-04-24T06:48:22;10.83;;;7.83;;
3447;SDS011;1738;49.500;17.736;2023-04-24T06:50:48;12.03;;;8.80;;
3447;SDS011;1738;49.500;17.736;2023-04-24T06:53:13;13.47;;;9.70;;
3447;SDS011;1738;49.500;17.736;2023-04-24T06:55:39;12.93;;;7.70;;
3447;SDS011;1738;49.500;17.736;2023-04-24T06:58:05;11.70;;;7.90;;
3447;SDS011;1738;49.500;17.736;2023-04-24T07:00:31;11.80;;;8.67;;
3447;SDS011;1738;49.500;17.736;2023-04-24T07:02:57;9.47;;;7.70;;
3447;SDS011;1738;49.500;17.736;2023-04-24T07:05:23;13.02;;;9.15;;
3447;SDS011;1738;49.500;17.736;2023-04-24T07:07:48;11.43;;;7.70;;
3447;SDS011;1738;49.500;17.736;2023-04-24T07:10:14;8.90;;;7.90;;
3447;SDS011;1738;49.500;17.736;2023-04-24T07:12:40;10.93;;;8.82;;
3447;SDS011;1738;49.500;17.736;2023-04-24T07:15:06;11.77;;;8.97;;
3447;SDS011;1738;49.500;17.736;2023-04-24T07:17:32;15.70;;;9.50;;
3447;SDS011;1738;49.500;17.736;2023-04-24T07:19:58;15.07;;;11.03;;
3447;SDS011;1738;49.500;17.736;2023-04-24T07:22:24;14.10;;;9.70;;
3447;SDS011;1738;49.500;17.736;2023-04-24T07:24:50;11.53;;;8.57;;
3447;SDS011;1738;49.500;17.736;2023-04-24T07:27:16;12.00;;;9.73;;
3447;SDS011;1738;49.500;17.736;2023-04-24T07:29:42;11.57;;;9.30;;
3447;SDS011;1738;49.500;17.736;2023-04-24T07:32:08;10.70;;;8.57;;
3447;SDS011;1738;49.500;17.736;2023-04-24T07:34:33;13.80;;;11.47;;
3447;SDS011;1738;49.500;17.736;2023-04-24T07:36:59;13.77;;;10.20;;
3447;SDS011;1738;49.500;17.736;2023-04-24T07:39:25;10.40;;;8.13;;
3447;SDS011;1738;49.500;17.736;2023-04-24T07:41:51;10.47;;;8.50;;
3447;SDS011;1738;49.500;17.736;2023-04-24T07:44:17;11.07;;;8.50;;
3447;SDS011;1738;49.500;17.736;2023-04-24T07:46:43;9.13;;;8.00;;
3447;SDS011;1738;49.500;17.736;2023-04-24T07:49:09;13.70;;;7.80;;
3447;SDS011;1738;49.500;17.736;2023-04-24T07:51:35;10.30;;;7.70;;
3447;SDS011;1738;49.500;17.736;2023-04-24T07:54:01;8.87;;;6.50;;
3447;SDS011;1738;49.500;17.736;2023-04-24T07:56:27;8.87;;;7.23;;
3447;SDS011;1738;49.500;17.736;2023-04-24T07:58:53;8.40;;;7.57;;
3447;SDS011;1738;49.500;17.736;2023-04-24T08:01:19;10.50;;;7.60;;
3447;SDS011;1738;49.500;17.736;2023-04-24T08:03:45;8.30;;;6.53;;
3447;SDS011;1738;49.500;17.736;2023-04-24T08:06:10;8.07;;;6.30;;
3447;SDS011;1738;49.500;17.736;2023-04-24T08:08:36;8.77;;;7.80;;
3447;SDS011;1738;49.500;17.736;2023-04-24T08:11:02;9.20;;;6.60;;
3447;SDS011;1738;49.500;17.736;2023-04-24T08:13:28;8.03;;;6.83;;
3447;SDS011;1738;49.500;17.736;2023-04-24T08:15:54;9.10;;;7.00;;
3447;SDS011;1738;49.500;17.736;2023-04-24T08:18:20;11.73;;;6.77;;
3447;SDS011;1738;49.500;17.736;2023-04-24T08:20:46;7.53;;;6.23;;
3447;SDS011;1738;49.500;17.736;2023-04-24T08:23:12;11.60;;;7.30;;
3447;SDS011;1738;49.500;17.736;2023-04-24T08:25:38;9.47;;;6.63;;
3447;SDS011;1738;49.500;17.736;2023-04-24T08:28:05;9.03;;;6.10;;
3447;SDS011;1738;49.500;17.736;2023-04-24T08:30:29;10.30;;;7.60;;
3447;SDS011;1738;49.500;17.736;2023-04-24T08:32:56;7.97;;;6.57;;
3447;SDS011;1738;49.500;17.736;2023-04-24T08:35:21;8.23;;;6.47;;
3447;SDS011;1738;49.500;17.736;2023-04-24T08:37:47;7.77;;;6.30;;
3447;SDS011;1738;49.500;17.736;2023-04-24T08:40:13;9.37;;;6.67;;
3447;SDS011;1738;49.500;17.736;2023-04-24T08:42:39;8.03;;;6.70;;
3447;SDS011;1738;49.500;17.736;2023-04-24T08:45:05;11.43;;;8.13;;
3447;SDS011;1738;49.500;17.736;2023-04-24T08:47:31;9.93;;;6.20;;
3447;SDS011;1738;49.500;17.736;2023-04-24T08:49:57;7.80;;;6.77;;
3447;SDS011;1738;49.500;17.736;2023-04-24T08:52:23;10.37;;;7.57;;
3447;SDS011;1738;49.500;17.736;2023-04-24T08:54:48;8.23;;;5.77;;
3447;SDS011;1738;49.500;17.736;2023-04-24T08:57:14;8.37;;;7.27;;
3447;SDS011;1738;49.500;17.736;2023-04-24T08:59:40;12.83;;;7.17;;
3447;SDS011;1738;49.500;17.736;2023-04-24T09:02:06;10.90;;;6.30;;
3447;SDS011;1738;49.500;17.736;2023-04-24T09:04:32;8.20;;;5.63;;
3447;SDS011;1738;49.500;17.736;2023-04-24T09:06:58;7.90;;;5.80;;
3447;SDS011;1738;49.500;17.736;2023-04-24T09:09:24;17.10;;;6.33;;
3447;SDS011;1738;49.500;17.736;2023-04-24T09:11:50;7.43;;;6.33;;
3447;SDS011;1738;49.500;17.736;2023-04-24T09:14:16;9.40;;;5.90;;
3447;SDS011;1738;49.500;17.736;2023-04-24T09:16:42;5.37;;;4.83;;
3447;SDS011;1738;49.500;17.736;2023-04-24T09:19:07;6.97;;;6.20;;
3447;SDS011;1738;49.500;17.736;2023-04-24T09:21:33;7.83;;;5.57;;
3447;SDS011;1738;49.500;17.736;2023-04-24T09:24:00;7.87;;;5.93;;
3447;SDS011;1738;49.500;17.736;2023-04-24T09:26:26;6.20;;;5.43;;
3447;SDS011;1738;49.500;17.736;2023-04-24T09:28:53;11.10;;;6.60;;
3447;SDS011;1738;49.500;17.736;2023-04-24T09:31:18;11.07;;;5.47;;
3447;SDS011;1738;49.500;17.736;2023-04-24T09:33:55;7.90;;;5.83;;
3447;SDS011;1738;49.500;17.736;2023-04-24T09:36:27;7.43;;;6.37;;
3447;SDS011;1738;49.500;17.736;2023-04-24T09:38:55;12.30;;;6.20;;
3447;SDS011;1738;49.500;17.736;2023-04-24T09:41:19;8.98;;;6.28;;
3447;SDS011;1738;49.500;17.736;2023-04-24T09:43:44;11.80;;;6.80;;
3447;SDS011;1738;49.500;17.736;2023-04-24T09:46:10;9.20;;;6.83;;
3447;SDS011;1738;49.500;17.736;2023-04-24T09:48:37;6.72;;;6.03;;
3447;SDS011;1738;49.500;17.736;2023-04-24T09:51:02;8.50;;;5.47;;
3447;SDS011;1738;49.500;17.736;2023-04-24T09:53:28;8.00;;;5.83;;
3447;SDS011;1738;49.500;17.736;2023-04-24T09:55:54;8.43;;;7.20;;
3447;SDS011;1738;49.500;17.736;2023-04-24T09:58:24;10.00;;;6.90;;
3447;SDS011;1738;49.500;17.736;2023-04-24T10:00:49;8.67;;;6.07;;
3447;SDS011;1738;49.500;17.736;2023-04-24T10:03:15;8.00;;;6.65;;
3447;SDS011;1738;49.500;17.736;2023-04-24T10:05:41;9.60;;;7.67;;
3447;SDS011;1738;49.500;17.736;2023-04-24T10:08:08;7.50;;;6.23;;
3447;SDS011;1738;49.500;17.736;2023-04-24T10:10:34;7.90;;;6.20;;
3447;SDS011;1738;49.500;17.736;2023-04-24T10:12:59;7.50;;;6.33;;
3447;SDS011;1738;49.500;17.736;2023-04-24T10:15:24;10.50;;;6.40;;
3447;SDS011;1738;49.500;17.736;2023-04-24T10:17:51;10.80;;;6.40;;
3447;SDS011;1738;49.500;17.736;2023-04-24T10:20:19;7.53;;;6.37;;
3447;SDS011;1738;49.500;17.736;2023-04-24T10:22:45;10.60;;;6.43;;
3447;SDS011;1738;49.500;17.736;2023-04-24T10:25:09;11.77;;;6.80;;
3447;SDS011;1738;49.500;17.736;2023-04-24T10:27:35;10.27;;;6.80;;
3447;SDS011;1738;49.500;17.736;2023-04-24T10:30:02;6.97;;;6.27;;
3447;SDS011;1738;49.500;17.736;2023-04-24T10:32:27;9.13;;;6.90;;
3447;SDS011;1738;49.500;17.736;2023-04-24T10:34:54;8.40;;;6.90;;
3447;SDS011;1738;49.500;17.736;2023-04-24T10:37:19;9.25;;;7.18;;
3447;SDS011;1738;49.500;17.736;2023-04-24T10:39:47;7.00;;;6.27;;
3447;SDS011;1738;49.500;17.736;2023-04-24T10:42:15;8.30;;;6.50;;
3447;SDS011;1738;49.500;17.736;2023-04-24T10:44:40;8.50;;;6.47;;
3447;SDS011;1738;49.500;17.736;2023-04-24T10:47:08;7.73;;;6.50;;
3447;SDS011;1738;49.500;17.736;2023-04-24T10:49:32;8.90;;;5.40;;
3447;SDS011;1738;49.500;17.736;2023-04-24T10:52:00;6.83;;;5.97;;
3447;SDS011;1738;49.500;17.736;2023-04-24T10:54:26;7.72;;;5.65;;
3447;SDS011;1738;49.500;17.736;2023-04-24T10:56:51;9.57;;;6.40;;
3447;SDS011;1738;49.500;17.736;2023-04-24T10:59:24;14.07;;;6.00;;
3447;SDS011;1738;49.500;17.736;2023-04-24T11:01:54;8.40;;;6.60;;
3447;SDS011;1738;49.500;17.736;2023-04-24T11:04:28;7.80;;;6.80;;
3447;SDS011;1738;49.500;17.736;2023-04-24T11:06:45;8.60;;;7.70;;
3447;SDS011;1738;49.500;17.736;2023-04-24T11:09:11;10.83;;;7.70;;
3447;SDS011;1738;49.500;17.736;2023-04-24T11:11:37;13.67;;;7.97;;
3447;SDS011;1738;49.500;17.736;2023-04-24T11:14:03;11.38;;;8.88;;
3447;SDS011;1738;49.500;17.736;2023-04-24T11:16:29;9.47;;;8.53;;
3447;SDS011;1738;49.500;17.736;2023-04-24T11:19:00;13.03;;;7.87;;
3447;SDS011;1738;49.500;17.736;2023-04-24T11:21:25;9.10;;;7.40;;
3447;SDS011;1738;49.500;17.736;2023-04-24T11:23:51;9.30;;;7.47;;
3447;SDS011;1738;49.500;17.736;2023-04-24T11:26:19;9.80;;;7.10;;
3447;SDS011;1738;49.500;17.736;2023-04-24T11:28:44;12.23;;;8.70;;
3447;SDS011;1738;49.500;17.736;2023-04-24T11:33:41;11.20;;;7.73;;
3447;SDS011;1738;49.500;17.736;2023-04-24T11:36:07;9.13;;;8.00;;
3447;SDS011;1738;49.500;17.736;2023-04-24T11:38:33;9.10;;;7.53;;
3447;SDS011;1738;49.500;17.736;2023-04-24T11:40:58;12.03;;;8.03;;
3447;SDS011;1738;49.500;17.736;2023-04-24T11:43:24;9.57;;;8.00;;
3447;SDS011;1738;49.500;17.736;2023-04-24T11:45:50;10.27;;;7.53;;
3447;SDS011;1738;49.500;17.736;2023-04-24T11:48:18;10.73;;;8.07;;
3447;SDS011;1738;49.500;17.736;2023-04-24T11:50:45;14.10;;;7.73;;
3447;SDS011;1738;49.500;17.736;2023-04-24T11:53:09;9.90;;;8.00;;
3447;SDS011;1738;49.500;17.736;2023-04-24T11:55:35;9.97;;;8.40;;
3447;SDS011;1738;49.500;17.736;2023-04-24T11:58:01;12.13;;;9.03;;
3447;SDS011;1738;49.500;17.736;2023-04-24T12:00:28;11.20;;;8.47;;
3447;SDS011;1738;49.500;17.736;2023-04-24T12:03:03;15.27;;;9.57;;
3447;SDS011;1738;49.500;17.736;2023-04-24T12:05:19;13.60;;;9.50;;
3447;SDS011;1738;49.500;17.736;2023-04-24T12:07:45;10.00;;;8.57;;
3447;SDS011;1738;49.500;17.736;2023-04-24T12:10:10;8.90;;;8.00;;
3447;SDS011;1738;49.500;17.736;2023-04-24T12:12:36;11.20;;;9.17;;
3447;SDS011;1738;49.500;17.736;2023-04-24T12:15:06;14.70;;;10.90;;
3447;SDS011;1738;49.500;17.736;2023-04-24T12:17:29;12.73;;;9.77;;
3447;SDS011;1738;49.500;17.736;2023-04-24T12:19:57;12.80;;;9.55;;
3447;SDS011;1738;49.500;17.736;2023-04-24T12:22:22;18.23;;;10.90;;
3447;SDS011;1738;49.500;17.736;2023-04-24T12:27:20;14.73;;;10.93;;
3447;SDS011;1738;49.500;17.736;2023-04-24T12:32:17;12.50;;;10.73;;
3447;SDS011;1738;49.500;17.736;2023-04-24T12:34:43;16.70;;;11.00;;
3447;SDS011;1738;49.500;17.736;2023-04-24T12:37:10;12.17;;;9.70;;
3447;SDS011;1738;49.500;17.736;2023-04-24T12:39:35;14.60;;;10.50;;
3447;SDS011;1738;49.500;17.736;2023-04-24T12:42:01;14.00;;;10.63;;
3447;SDS011;1738;49.500;17.736;2023-04-24T12:44:29;12.90;;;9.20;;
3447;SDS011;1738;49.500;17.736;2023-04-24T12:46:54;16.13;;;11.77;;
3447;SDS011;1738;49.500;17.736;2023-04-24T12:49:20;14.77;;;9.67;;
3447;SDS011;1738;49.500;17.736;2023-04-24T12:51:46;12.23;;;9.37;;
3447;SDS011;1738;49.500;17.736;2023-04-24T12:54:11;10.27;;;8.83;;
3447;SDS011;1738;49.500;17.736;2023-04-24T12:56:37;11.83;;;9.17;;
3447;SDS011;1738;49.500;17.736;2023-04-24T12:59:03;11.73;;;9.63;;
3447;SDS011;1738;49.500;17.736;2023-04-24T13:01:29;15.93;;;9.77;;
3447;SDS011;1738;49.500;17.736;2023-04-24T13:03:55;11.47;;;9.53;;
3447;SDS011;1738;49.500;17.736;2023-04-24T13:06:21;12.50;;;8.83;;
3447;SDS011;1738;49.500;17.736;2023-04-24T13:08:47;10.80;;;9.50;;
3447;SDS011;1738;49.500;17.736;2023-04-24T13:11:12;9.87;;;8.87;;
3447;SDS011;1738;49.500;17.736;2023-04-24T13:13:38;13.50;;;10.10;;
3447;SDS011;1738;49.500;17.736;2023-04-24T13:16:04;17.97;;;10.07;;
3447;SDS011;1738;49.500;17.736;2023-04-24T13:18:30;12.57;;;9.77;;
3447;SDS011;1738;49.500;17.736;2023-04-24T13:20:56;18.50;;;10.30;;
3447;SDS011;1738;49.500;17.736;2023-04-24T13:23:22;13.13;;;11.10;;
3447;SDS011;1738;49.500;17.736;2023-04-24T13:25:48;13.63;;;9.50;;
3447;SDS011;1738;49.500;17.736;2023-04-24T13:28:13;12.77;;;9.43;;
3447;SDS011;1738;49.500;17.736;2023-04-24T13:30:39;16.13;;;11.20;;
3447;SDS011;1738;49.500;17.736;2023-04-24T13:33:05;14.97;;;11.23;;
3447;SDS011;1738;49.500;17.736;2023-04-24T13:35:31;12.07;;;9.73;;
3447;SDS011;1738;49.500;17.736;2023-04-24T13:37:57;12.10;;;10.17;;
3447;SDS011;1738;49.500;17.736;2023-04-24T13:40:23;14.80;;;11.77;;
3447;SDS011;1738;49.500;17.736;2023-04-24T13:42:49;17.90;;;11.83;;
3447;SDS011;1738;49.500;17.736;2023-04-24T13:45:14;16.43;;;12.83;;
3447;SDS011;1738;49.500;17.736;2023-04-24T13:47:40;13.00;;;11.00;;
3447;SDS011;1738;49.500;17.736;2023-04-24T13:50:07;12.23;;;10.87;;
3447;SDS011;1738;49.500;17.736;2023-04-24T13:52:33;13.90;;;12.20;;
3447;SDS011;1738;49.500;17.736;2023-04-24T13:54:58;17.00;;;13.00;;
3447;SDS011;1738;49.500;17.736;2023-04-24T13:57:24;14.80;;;11.90;;
3447;SDS011;1738;49.500;17.736;2023-04-24T13:59:50;17.30;;;12.27;;
3447;SDS011;1738;49.500;17.736;2023-04-24T14:02:16;13.87;;;12.20;;
3447;SDS011;1738;49.500;17.736;2023-04-24T14:04:42;13.33;;;11.33;;
3447;SDS011;1738;49.500;17.736;2023-04-24T14:07:08;16.83;;;12.83;;
3447;SDS011;1738;49.500;17.736;2023-04-24T14:09:33;12.73;;;11.03;;
3447;SDS011;1738;49.500;17.736;2023-04-24T14:11:59;13.53;;;12.03;;
3447;SDS011;1738;49.500;17.736;2023-04-24T14:14:25;19.90;;;12.80;;
3447;SDS011;1738;49.500;17.736;2023-04-24T14:16:51;18.40;;;10.90;;
3447;SDS011;1738;49.500;17.736;2023-04-24T14:19:17;13.70;;;10.37;;
3447;SDS011;1738;49.500;17.736;2023-04-24T14:21:43;14.07;;;11.50;;
3447;SDS011;1738;49.500;17.736;2023-04-24T14:24:09;12.13;;;10.50;;
3447;SDS011;1738;49.500;17.736;2023-04-24T14:26:34;14.60;;;10.77;;
3447;SDS011;1738;49.500;17.736;2023-04-24T14:29:00;13.10;;;10.23;;
3447;SDS011;1738;49.500;17.736;2023-04-24T14:31:27;18.37;;;10.67;;
3447;SDS011;1738;49.500;17.736;2023-04-24T14:33:52;16.93;;;11.50;;
3447;SDS011;1738;49.500;17.736;2023-04-24T14:36:18;14.43;;;12.47;;
3447;SDS011;1738;49.500;17.736;2023-04-24T14:38:44;17.27;;;12.90;;
3447;SDS011;1738;49.500;17.736;2023-04-24T14:41:10;17.73;;;13.10;;
3447;SDS011;1738;49.500;17.736;2023-04-24T14:43:35;16.90;;;13.50;;
3447;SDS011;1738;49.500;17.736;2023-04-24T14:46:02;14.40;;;12.47;;
3447;SDS011;1738;49.500;17.736;2023-04-24T14:48:27;17.80;;;13.07;;
3447;SDS011;1738;49.500;17.736;2023-04-24T14:50:53;16.40;;;12.80;;
3447;SDS011;1738;49.500;17.736;2023-04-24T14:53:19;19.70;;;15.57;;